WJA801 CYHZ-CYYZ
Flight info
| Callsign | WJA801 |
|---|---|
| Flight time | 2h 8m |
| Altitude | 34000 |
| Route | KELNO Q806 TUKIR RAGID6 |
| Aircraft | B738/M-SDE2E3FGHIRWXY/LB1 |
Departure
| Time | 2026-05-06 07:16 |
|---|---|
| Airport | Halifax / Stanfield International Airport (CYHZ) |
Arrival
| Time | 2026-05-06 09:24 |
|---|---|
| Airport | Toronto Pearson International Airport (CYYZ) |
| Time | Latitude | Longitude | Altitude | Speed | Heading |
|---|---|---|---|---|---|
| 2026-05-06 06:48 | 44.88926 | -63.51570 | 451 ft | 0 kts | 215° |
| 2026-05-06 06:49 | 44.88925 | -63.51571 | 451 ft | 0 kts | 215° |
| 2026-05-06 07:08 | 44.88936 | -63.51560 | 449 ft | 4 kts | 215° |
| 2026-05-06 07:08 | 44.88958 | -63.51538 | 449 ft | 4 kts | 215° |
| 2026-05-06 07:08 | 44.88978 | -63.51519 | 450 ft | 2 kts | 215° |
| 2026-05-06 07:09 | 44.88997 | -63.51507 | 449 ft | 4 kts | 158° |
| 2026-05-06 07:09 | 44.89015 | -63.51528 | 451 ft | 3 kts | 126° |
| 2026-05-06 07:09 | 44.89026 | -63.51551 | 451 ft | 0 kts | 126° |
| 2026-05-06 07:11 | 44.89026 | -63.51550 | 451 ft | 1 kts | 126° |
| 2026-05-06 07:11 | 44.88997 | -63.51493 | 449 ft | 13 kts | 125° |
| 2026-05-06 07:11 | 44.88933 | -63.51369 | 450 ft | 16 kts | 126° |
| 2026-05-06 07:12 | 44.88842 | -63.51297 | 450 ft | 15 kts | 169° |
| 2026-05-06 07:12 | 44.88739 | -63.51274 | 451 ft | 15 kts | 165° |
| 2026-05-06 07:12 | 44.88693 | -63.51164 | 451 ft | 14 kts | 78° |
| 2026-05-06 07:12 | 44.88712 | -63.51031 | 449 ft | 13 kts | 78° |
| 2026-05-06 07:13 | 44.88749 | -63.50917 | 451 ft | 13 kts | 43° |
| 2026-05-06 07:13 | 44.88817 | -63.50836 | 449 ft | 13 kts | 38° |
| 2026-05-06 07:13 | 44.88885 | -63.50761 | 449 ft | 12 kts | 37° |
| 2026-05-06 07:13 | 44.88953 | -63.50690 | 450 ft | 12 kts | 37° |
| 2026-05-06 07:14 | 44.89000 | -63.50617 | 449 ft | 0 kts | 86° |
| 2026-05-06 07:14 | 44.89000 | -63.50616 | 450 ft | 1 kts | 86° |
| 2026-05-06 07:14 | 44.88998 | -63.50583 | 450 ft | 7 kts | 104° |
| 2026-05-06 07:15 | 44.88962 | -63.50494 | 450 ft | 14 kts | 124° |
| 2026-05-06 07:15 | 44.88884 | -63.50435 | 450 ft | 0 kts | 203° |
| 2026-05-06 07:15 | 44.88884 | -63.50436 | 450 ft | 2 kts | 203° |
| 2026-05-06 07:15 | 44.88685 | -63.50632 | 450 ft | 70 kts | 216° |
| 2026-05-06 07:16 | 44.88107 | -63.51199 | 447 ft | 131 kts | 215° |
| 2026-05-06 07:16 | 44.87245 | -63.52040 | 601 ft | 168 kts | 214° |
| 2026-05-06 07:16 | 44.86294 | -63.53148 | 1098 ft | 188 kts | 230° |
| 2026-05-06 07:16 | 44.85850 | -63.54916 | 1800 ft | 196 kts | 262° |
| 2026-05-06 07:17 | 44.86169 | -63.56794 | 2610 ft | 209 kts | 292° |
| 2026-05-06 07:17 | 44.86954 | -63.58656 | 2934 ft | 230 kts | 293° |
| 2026-05-06 07:17 | 44.87812 | -63.60583 | 3610 ft | 231 kts | 292° |
| 2026-05-06 07:17 | 44.88683 | -63.62520 | 4211 ft | 241 kts | 292° |
| 2026-05-06 07:18 | 44.89593 | -63.64568 | 4879 ft | 250 kts | 293° |
| 2026-05-06 07:18 | 44.90517 | -63.66640 | 5780 ft | 250 kts | 293° |
| 2026-05-06 07:18 | 44.91446 | -63.68738 | 6601 ft | 253 kts | 294° |
| 2026-05-06 07:18 | 44.92381 | -63.70858 | 7390 ft | 257 kts | 294° |
| 2026-05-06 07:19 | 44.93321 | -63.73001 | 8166 ft | 261 kts | 294° |
| 2026-05-06 07:19 | 44.94277 | -63.75189 | 8935 ft | 264 kts | 294° |
| 2026-05-06 07:19 | 44.95247 | -63.77415 | 9690 ft | 268 kts | 294° |
| 2026-05-06 07:19 | 44.96229 | -63.79673 | 10346 ft | 274 kts | 295° |
| 2026-05-06 07:20 | 44.97263 | -63.82074 | 10590 ft | 297 kts | 295° |
| 2026-05-06 07:20 | 44.98384 | -63.84685 | 10772 ft | 323 kts | 296° |
| 2026-05-06 07:20 | 44.99593 | -63.87468 | 10921 ft | 342 kts | 296° |
| 2026-05-06 07:20 | 45.00870 | -63.90378 | 11148 ft | 361 kts | 297° |
| 2026-05-06 07:21 | 45.02230 | -63.93461 | 11715 ft | 367 kts | 296° |
| 2026-05-06 07:21 | 45.03547 | -63.96515 | 12357 ft | 370 kts | 296° |
| 2026-05-06 07:21 | 45.04889 | -63.99640 | 12999 ft | 373 kts | 296° |
| 2026-05-06 07:21 | 45.06242 | -64.02793 | 13602 ft | 378 kts | 296° |
| 2026-05-06 07:22 | 45.07613 | -64.05986 | 14182 ft | 382 kts | 296° |
| 2026-05-06 07:22 | 45.09004 | -64.09219 | 14775 ft | 386 kts | 296° |
| 2026-05-06 07:22 | 45.10401 | -64.12472 | 15399 ft | 389 kts | 296° |
| 2026-05-06 07:22 | 45.11810 | -64.15767 | 15932 ft | 393 kts | 295° |
| 2026-05-06 07:23 | 45.12972 | -64.19257 | 16478 ft | 391 kts | 285° |
| 2026-05-06 07:23 | 45.13709 | -64.22950 | 17036 ft | 388 kts | 276° |
| 2026-05-06 07:23 | 45.14137 | -64.26740 | 17562 ft | 391 kts | 275° |
| 2026-05-06 07:23 | 45.14534 | -64.30558 | 18034 ft | 395 kts | 274° |
| 2026-05-06 07:24 | 45.14933 | -64.34424 | 18528 ft | 398 kts | 274° |
| 2026-05-06 07:24 | 45.15339 | -64.38321 | 19039 ft | 401 kts | 275° |
| 2026-05-06 07:24 | 45.15747 | -64.42200 | 19513 ft | 404 kts | 275° |
| 2026-05-06 07:24 | 45.16168 | -64.46160 | 19993 ft | 407 kts | 275° |
| 2026-05-06 07:25 | 45.16592 | -64.50135 | 20454 ft | 410 kts | 275° |
| 2026-05-06 07:25 | 45.17022 | -64.54147 | 20890 ft | 413 kts | 275° |
| 2026-05-06 07:25 | 45.17454 | -64.58182 | 21313 ft | 416 kts | 275° |
| 2026-05-06 07:25 | 45.17889 | -64.62257 | 21713 ft | 419 kts | 275° |
| 2026-05-06 07:26 | 45.18325 | -64.66347 | 22112 ft | 422 kts | 275° |
| 2026-05-06 07:26 | 45.18764 | -64.70481 | 22488 ft | 424 kts | 275° |
| 2026-05-06 07:26 | 45.19201 | -64.74622 | 22883 ft | 426 kts | 275° |
| 2026-05-06 07:26 | 45.19637 | -64.78755 | 23220 ft | 429 kts | 276° |
| 2026-05-06 07:27 | 45.20079 | -64.82970 | 23533 ft | 433 kts | 276° |
| 2026-05-06 07:27 | 45.20521 | -64.87199 | 23893 ft | 435 kts | 276° |
| 2026-05-06 07:27 | 45.20964 | -64.91461 | 24234 ft | 437 kts | 276° |
| 2026-05-06 07:27 | 45.21409 | -64.95742 | 24545 ft | 439 kts | 276° |
| 2026-05-06 07:28 | 45.21854 | -65.00042 | 24878 ft | 441 kts | 276° |
| 2026-05-06 07:28 | 45.22299 | -65.04361 | 25218 ft | 443 kts | 276° |
| 2026-05-06 07:28 | 45.23187 | -65.13035 | 25824 ft | 447 kts | 276° |
| 2026-05-06 07:29 | 45.23626 | -65.17355 | 26122 ft | 448 kts | 276° |
| 2026-05-06 07:29 | 45.24070 | -65.21731 | 26442 ft | 449 kts | 276° |
| 2026-05-06 07:29 | 45.24514 | -65.26126 | 26709 ft | 451 kts | 276° |
| 2026-05-06 07:29 | 45.24959 | -65.30551 | 26963 ft | 453 kts | 276° |
| 2026-05-06 07:30 | 45.25402 | -65.34964 | 27323 ft | 451 kts | 276° |
| 2026-05-06 07:30 | 45.25842 | -65.39367 | 27802 ft | 448 kts | 276° |
| 2026-05-06 07:30 | 45.26275 | -65.43721 | 28267 ft | 445 kts | 276° |
| 2026-05-06 07:30 | 45.26705 | -65.48055 | 28665 ft | 443 kts | 276° |
| 2026-05-06 07:31 | 45.27128 | -65.52389 | 29020 ft | 442 kts | 276° |
| 2026-05-06 07:31 | 45.27552 | -65.56704 | 29380 ft | 442 kts | 276° |
| 2026-05-06 07:31 | 45.27974 | -65.61015 | 29763 ft | 440 kts | 276° |
| 2026-05-06 07:31 | 45.28394 | -65.65308 | 30163 ft | 438 kts | 276° |
| 2026-05-06 07:32 | 45.28810 | -65.69594 | 30541 ft | 436 kts | 276° |
| 2026-05-06 07:32 | 45.29217 | -65.73792 | 30910 ft | 434 kts | 276° |
| 2026-05-06 07:32 | 45.29625 | -65.78032 | 31258 ft | 433 kts | 276° |
| 2026-05-06 07:32 | 45.30032 | -65.82275 | 31602 ft | 432 kts | 276° |
| 2026-05-06 07:33 | 45.30435 | -65.86491 | 31917 ft | 431 kts | 276° |
| 2026-05-06 07:33 | 45.30836 | -65.90704 | 32222 ft | 430 kts | 275° |
| 2026-05-06 07:33 | 45.31235 | -65.94927 | 32485 ft | 431 kts | 275° |
| 2026-05-06 07:33 | 45.31632 | -65.99144 | 32740 ft | 431 kts | 275° |
| 2026-05-06 07:34 | 45.32028 | -66.03359 | 33072 ft | 428 kts | 275° |
| 2026-05-06 07:34 | 45.32418 | -66.07520 | 33553 ft | 423 kts | 275° |
| 2026-05-06 07:34 | 45.32804 | -66.11650 | 33890 ft | 421 kts | 275° |
| 2026-05-06 07:34 | 45.33189 | -66.15803 | 33918 ft | 425 kts | 275° |
| 2026-05-06 07:35 | 45.33955 | -66.24115 | 33927 ft | 426 kts | 275° |
| 2026-05-06 07:35 | 45.34717 | -66.32415 | 33923 ft | 421 kts | 275° |
| 2026-05-06 07:36 | 45.35464 | -66.40648 | 33929 ft | 419 kts | 275° |
| 2026-05-06 07:36 | 45.36201 | -66.48850 | 33918 ft | 418 kts | 275° |
| 2026-05-06 07:37 | 45.36934 | -66.57046 | 33912 ft | 417 kts | 275° |
| 2026-05-06 07:37 | 45.37661 | -66.65244 | 33904 ft | 417 kts | 275° |
| 2026-05-06 07:38 | 45.38539 | -66.73402 | 33909 ft | 417 kts | 277° |
| 2026-05-06 07:38 | 45.39537 | -66.81479 | 33893 ft | 417 kts | 277° |
| 2026-05-06 07:39 | 45.40526 | -66.89629 | 33902 ft | 417 kts | 277° |
| 2026-05-06 07:39 | 45.41485 | -66.97770 | 33899 ft | 417 kts | 277° |
| 2026-05-06 07:40 | 45.42430 | -67.05906 | 33888 ft | 416 kts | 277° |
| 2026-05-06 07:40 | 45.43370 | -67.14028 | 33896 ft | 416 kts | 277° |
| 2026-05-06 07:41 | 45.44300 | -67.22157 | 33888 ft | 415 kts | 277° |
| 2026-05-06 07:41 | 45.45220 | -67.30250 | 33899 ft | 413 kts | 277° |
| 2026-05-06 07:42 | 45.46133 | -67.38312 | 33885 ft | 411 kts | 277° |
| 2026-05-06 07:42 | 45.47037 | -67.46341 | 33877 ft | 409 kts | 277° |
| 2026-05-06 07:43 | 45.47925 | -67.54272 | 33881 ft | 407 kts | 277° |
| 2026-05-06 07:43 | 45.48818 | -67.62224 | 33881 ft | 405 kts | 277° |
| 2026-05-06 07:44 | 45.49715 | -67.70135 | 33874 ft | 403 kts | 277° |
| 2026-05-06 07:44 | 45.50614 | -67.78015 | 33878 ft | 401 kts | 277° |
| 2026-05-06 07:45 | 45.51496 | -67.85806 | 33876 ft | 399 kts | 277° |
| 2026-05-06 07:45 | 45.52375 | -67.93633 | 33871 ft | 398 kts | 277° |
| 2026-05-06 07:46 | 45.53244 | -68.01430 | 33872 ft | 398 kts | 276° |
| 2026-05-06 07:46 | 45.54107 | -68.09205 | 33868 ft | 396 kts | 276° |
| 2026-05-06 07:47 | 45.54963 | -68.16973 | 33870 ft | 396 kts | 276° |
| 2026-05-06 07:47 | 45.55813 | -68.24734 | 33870 ft | 396 kts | 276° |
| 2026-05-06 07:48 | 45.56650 | -68.32442 | 33869 ft | 396 kts | 276° |
| 2026-05-06 07:48 | 45.57490 | -68.40217 | 33872 ft | 396 kts | 276° |
| 2026-05-06 07:49 | 45.58328 | -68.48008 | 33868 ft | 397 kts | 276° |
| 2026-05-06 07:49 | 45.58991 | -68.55855 | 33877 ft | 397 kts | 272° |
| 2026-05-06 07:50 | 45.59309 | -68.62409 | 33871 ft | 398 kts | 272° |
| 2026-05-06 07:50 | 45.59662 | -68.70311 | 33870 ft | 399 kts | 272° |
| 2026-05-06 07:51 | 45.60028 | -68.78234 | 33872 ft | 400 kts | 272° |
| 2026-05-06 07:51 | 45.60402 | -68.86126 | 33868 ft | 400 kts | 271° |
| 2026-05-06 07:52 | 45.60776 | -68.94045 | 33871 ft | 400 kts | 271° |
| 2026-05-06 07:52 | 45.61147 | -69.01985 | 33869 ft | 399 kts | 271° |
| 2026-05-06 07:53 | 45.61510 | -69.09898 | 33871 ft | 399 kts | 271° |
| 2026-05-06 07:53 | 45.61866 | -69.17803 | 33858 ft | 398 kts | 271° |
| 2026-05-06 07:54 | 45.62218 | -69.25679 | 33862 ft | 396 kts | 271° |
| 2026-05-06 07:54 | 45.62560 | -69.33470 | 33862 ft | 395 kts | 270° |
| 2026-05-06 07:55 | 45.62898 | -69.41299 | 33848 ft | 394 kts | 270° |
| 2026-05-06 07:55 | 45.63229 | -69.49102 | 33851 ft | 393 kts | 270° |
| 2026-05-06 07:56 | 45.63554 | -69.56881 | 33853 ft | 392 kts | 270° |
| 2026-05-06 07:56 | 45.63873 | -69.64645 | 33849 ft | 391 kts | 270° |
| 2026-05-06 07:57 | 45.64187 | -69.72402 | 33851 ft | 389 kts | 270° |
| 2026-05-06 07:57 | 45.64494 | -69.80113 | 33850 ft | 388 kts | 269° |
| 2026-05-06 07:58 | 45.64792 | -69.87758 | 33855 ft | 387 kts | 269° |
| 2026-05-06 07:58 | 45.65087 | -69.95444 | 33847 ft | 387 kts | 269° |
| 2026-05-06 07:59 | 45.65377 | -70.03120 | 33855 ft | 387 kts | 269° |
| 2026-05-06 07:59 | 45.65661 | -70.10803 | 33847 ft | 387 kts | 269° |
| 2026-05-06 08:00 | 45.65940 | -70.18479 | 33853 ft | 387 kts | 269° |
| 2026-05-06 08:00 | 45.66214 | -70.26162 | 33851 ft | 387 kts | 269° |
| 2026-05-06 08:01 | 45.66483 | -70.33811 | 33848 ft | 388 kts | 269° |
| 2026-05-06 08:01 | 45.66749 | -70.41530 | 33860 ft | 388 kts | 269° |
| 2026-05-06 08:02 | 45.67009 | -70.49255 | 33861 ft | 389 kts | 269° |
| 2026-05-06 08:02 | 45.67264 | -70.57000 | 33857 ft | 390 kts | 269° |
| 2026-05-06 08:03 | 45.67513 | -70.64758 | 33853 ft | 391 kts | 269° |
| 2026-05-06 08:03 | 45.67761 | -70.72539 | 33861 ft | 391 kts | 269° |
| 2026-05-06 08:04 | 45.67980 | -70.80265 | 33864 ft | 391 kts | 267° |
| 2026-05-06 08:04 | 45.67588 | -70.87982 | 33865 ft | 389 kts | 262° |
| 2026-05-06 08:05 | 45.67050 | -70.95671 | 33875 ft | 389 kts | 262° |
| 2026-05-06 08:05 | 45.66537 | -71.03310 | 33875 ft | 389 kts | 262° |
| 2026-05-06 08:06 | 45.66031 | -71.11020 | 33878 ft | 390 kts | 262° |
| 2026-05-06 08:06 | 45.65529 | -71.18686 | 33888 ft | 390 kts | 262° |
| 2026-05-06 08:07 | 45.65017 | -71.26408 | 33891 ft | 390 kts | 262° |
| 2026-05-06 08:07 | 45.64499 | -71.34141 | 33881 ft | 390 kts | 262° |
| 2026-05-06 08:08 | 45.63978 | -71.41856 | 33890 ft | 390 kts | 262° |
| 2026-05-06 08:08 | 45.63447 | -71.49554 | 33895 ft | 389 kts | 262° |
| 2026-05-06 08:09 | 45.62910 | -71.57225 | 33885 ft | 387 kts | 261° |
| 2026-05-06 08:09 | 45.62371 | -71.64875 | 33894 ft | 387 kts | 261° |
| 2026-05-06 08:10 | 45.61828 | -71.72512 | 33895 ft | 386 kts | 261° |
| 2026-05-06 08:10 | 45.61284 | -71.80092 | 33899 ft | 385 kts | 261° |
| 2026-05-06 08:11 | 45.60734 | -71.87704 | 33898 ft | 385 kts | 261° |
| 2026-05-06 08:11 | 45.60180 | -71.95309 | 33900 ft | 385 kts | 261° |
| 2026-05-06 08:12 | 45.59621 | -72.02915 | 33887 ft | 385 kts | 261° |
| 2026-05-06 08:12 | 45.59058 | -72.10505 | 33892 ft | 384 kts | 261° |
| 2026-05-06 08:13 | 45.58491 | -72.18083 | 33882 ft | 384 kts | 261° |
| 2026-05-06 08:13 | 45.57924 | -72.25606 | 33888 ft | 384 kts | 261° |
| 2026-05-06 08:14 | 45.57349 | -72.33178 | 33882 ft | 384 kts | 261° |
| 2026-05-06 08:14 | 45.57109 | -72.40820 | 33885 ft | 386 kts | 265° |
| 2026-05-06 08:15 | 45.56981 | -72.48484 | 33879 ft | 387 kts | 265° |
| 2026-05-06 08:15 | 45.56843 | -72.56171 | 33881 ft | 388 kts | 265° |
| 2026-05-06 08:16 | 45.56687 | -72.63869 | 33883 ft | 388 kts | 265° |
| 2026-05-06 08:16 | 45.56519 | -72.71585 | 33874 ft | 389 kts | 265° |
| 2026-05-06 08:17 | 45.56347 | -72.79248 | 33879 ft | 389 kts | 264° |
| 2026-05-06 08:17 | 45.56168 | -72.86951 | 33871 ft | 389 kts | 264° |
| 2026-05-06 08:18 | 45.55983 | -72.94690 | 33868 ft | 389 kts | 264° |
| 2026-05-06 08:18 | 45.55793 | -73.02420 | 33872 ft | 389 kts | 264° |
| 2026-05-06 08:19 | 45.55599 | -73.10139 | 33872 ft | 389 kts | 264° |
| 2026-05-06 08:19 | 45.55399 | -73.17844 | 33893 ft | 388 kts | 264° |
| 2026-05-06 08:20 | 45.55194 | -73.25513 | 33876 ft | 388 kts | 264° |
| 2026-05-06 08:20 | 45.54984 | -73.33205 | 33872 ft | 388 kts | 264° |
| 2026-05-06 08:21 | 45.54768 | -73.40910 | 33868 ft | 388 kts | 264° |
| 2026-05-06 08:21 | 45.54548 | -73.48617 | 33871 ft | 388 kts | 264° |
| 2026-05-06 08:22 | 45.54325 | -73.56308 | 33870 ft | 388 kts | 264° |
| 2026-05-06 08:22 | 45.54095 | -73.63991 | 33874 ft | 386 kts | 264° |
| 2026-05-06 08:23 | 45.53859 | -73.71652 | 33877 ft | 387 kts | 263° |
| 2026-05-06 08:23 | 45.53620 | -73.79259 | 33880 ft | 386 kts | 263° |
| 2026-05-06 08:24 | 45.53376 | -73.86918 | 33880 ft | 386 kts | 263° |
| 2026-05-06 08:24 | 45.53127 | -73.94555 | 33879 ft | 386 kts | 263° |
| 2026-05-06 08:25 | 45.52872 | -74.02209 | 33877 ft | 385 kts | 263° |
| 2026-05-06 08:25 | 45.52612 | -74.09849 | 33874 ft | 385 kts | 263° |
| 2026-05-06 08:26 | 45.52349 | -74.17429 | 33877 ft | 385 kts | 263° |
| 2026-05-06 08:26 | 45.52080 | -74.25053 | 33878 ft | 384 kts | 263° |
| 2026-05-06 08:27 | 45.51807 | -74.32658 | 33879 ft | 384 kts | 263° |
| 2026-05-06 08:27 | 45.51529 | -74.40265 | 33878 ft | 384 kts | 263° |
| 2026-05-06 08:28 | 45.51143 | -74.47838 | 33872 ft | 381 kts | 257° |
| 2026-05-06 08:28 | 45.50083 | -74.55229 | 33886 ft | 380 kts | 256° |
| 2026-05-06 08:29 | 45.49038 | -74.62622 | 33875 ft | 380 kts | 257° |
| 2026-05-06 08:29 | 45.47999 | -74.70000 | 33879 ft | 380 kts | 257° |
| 2026-05-06 08:30 | 45.46962 | -74.77336 | 33873 ft | 380 kts | 257° |
| 2026-05-06 08:30 | 45.45914 | -74.84721 | 33882 ft | 380 kts | 257° |
| 2026-05-06 08:31 | 45.44861 | -74.92117 | 33886 ft | 380 kts | 257° |
| 2026-05-06 08:31 | 45.43805 | -74.99497 | 33881 ft | 380 kts | 257° |
| 2026-05-06 08:32 | 45.42740 | -75.06884 | 33874 ft | 381 kts | 257° |
| 2026-05-06 08:32 | 45.41670 | -75.14270 | 33866 ft | 381 kts | 257° |
| 2026-05-06 08:33 | 45.40598 | -75.21636 | 33873 ft | 380 kts | 257° |
| 2026-05-06 08:33 | 45.39530 | -75.28951 | 33869 ft | 379 kts | 257° |
| 2026-05-06 08:34 | 45.37908 | -75.39977 | 33863 ft | 379 kts | 257° |
| 2026-05-06 08:35 | 45.36824 | -75.47302 | 33859 ft | 378 kts | 257° |
| 2026-05-06 08:35 | 45.35738 | -75.54625 | 33861 ft | 378 kts | 257° |
| 2026-05-06 08:36 | 45.34647 | -75.61937 | 33860 ft | 378 kts | 257° |
| 2026-05-06 08:36 | 45.33558 | -75.69202 | 33864 ft | 377 kts | 257° |
| 2026-05-06 08:37 | 45.32459 | -75.76497 | 33858 ft | 377 kts | 257° |
| 2026-05-06 08:37 | 45.31357 | -75.83781 | 33862 ft | 376 kts | 257° |
| 2026-05-06 08:38 | 45.30440 | -75.89822 | 33859 ft | 376 kts | 257° |
| 2026-05-06 08:38 | 45.29332 | -75.97085 | 33861 ft | 376 kts | 257° |
| 2026-05-06 08:39 | 45.28222 | -76.04332 | 33866 ft | 375 kts | 257° |
| 2026-05-06 08:39 | 45.27110 | -76.11560 | 33859 ft | 374 kts | 257° |
| 2026-05-06 08:40 | 45.26002 | -76.18729 | 33850 ft | 374 kts | 257° |
| 2026-05-06 08:40 | 45.24150 | -76.25566 | 33849 ft | 375 kts | 239° |
| 2026-05-06 08:41 | 45.20827 | -76.31324 | 33844 ft | 378 kts | 233° |
| 2026-05-06 08:41 | 45.17356 | -76.36919 | 33840 ft | 377 kts | 233° |
| 2026-05-06 08:42 | 45.13904 | -76.42522 | 33842 ft | 377 kts | 234° |
| 2026-05-06 08:42 | 45.10469 | -76.48139 | 33843 ft | 377 kts | 234° |
| 2026-05-06 08:43 | 45.07062 | -76.53714 | 33842 ft | 376 kts | 234° |
| 2026-05-06 08:43 | 45.03641 | -76.59308 | 33846 ft | 376 kts | 234° |
| 2026-05-06 08:44 | 45.00217 | -76.64894 | 33843 ft | 376 kts | 234° |
| 2026-05-06 08:44 | 44.96787 | -76.70481 | 33836 ft | 376 kts | 234° |
| 2026-05-06 08:45 | 44.93357 | -76.76055 | 33840 ft | 376 kts | 234° |
| 2026-05-06 08:45 | 44.89946 | -76.81587 | 33843 ft | 376 kts | 234° |
| 2026-05-06 08:46 | 44.86512 | -76.87148 | 33844 ft | 376 kts | 234° |
| 2026-05-06 08:46 | 44.83075 | -76.92700 | 33843 ft | 376 kts | 234° |
| 2026-05-06 08:47 | 44.79912 | -76.98488 | 33857 ft | 370 kts | 243° |
| 2026-05-06 08:47 | 44.77399 | -77.04808 | 33852 ft | 370 kts | 244° |
| 2026-05-06 08:48 | 44.74896 | -77.11150 | 33852 ft | 370 kts | 243° |
| 2026-05-06 08:48 | 44.72366 | -77.17454 | 33865 ft | 371 kts | 243° |
| 2026-05-06 08:49 | 44.69809 | -77.23764 | 33858 ft | 370 kts | 243° |
| 2026-05-06 08:49 | 44.67267 | -77.30010 | 33861 ft | 370 kts | 243° |
| 2026-05-06 08:50 | 44.64707 | -77.36287 | 33865 ft | 370 kts | 243° |
| 2026-05-06 08:50 | 44.62141 | -77.42562 | 33865 ft | 370 kts | 243° |
| 2026-05-06 08:51 | 44.59580 | -77.48812 | 33869 ft | 369 kts | 243° |
| 2026-05-06 08:51 | 44.57021 | -77.55044 | 33871 ft | 369 kts | 243° |
| 2026-05-06 08:52 | 44.54474 | -77.61239 | 33881 ft | 369 kts | 243° |
| 2026-05-06 08:52 | 44.51904 | -77.67469 | 33883 ft | 369 kts | 243° |
| 2026-05-06 08:53 | 44.49325 | -77.73695 | 33875 ft | 369 kts | 242° |
| 2026-05-06 08:53 | 44.48027 | -77.76826 | 33379 ft | 375 kts | 242° |
| 2026-05-06 08:53 | 44.46718 | -77.79978 | 32759 ft | 373 kts | 242° |
| 2026-05-06 08:53 | 44.45412 | -77.83121 | 32167 ft | 372 kts | 242° |
| 2026-05-06 08:54 | 44.44119 | -77.86228 | 31685 ft | 368 kts | 242° |
| 2026-05-06 08:54 | 44.42836 | -77.89308 | 31191 ft | 364 kts | 242° |
| 2026-05-06 08:54 | 44.41568 | -77.92350 | 30703 ft | 361 kts | 242° |
| 2026-05-06 08:54 | 44.40305 | -77.95377 | 30219 ft | 358 kts | 242° |
| 2026-05-06 08:55 | 44.39056 | -77.98370 | 29734 ft | 355 kts | 242° |
| 2026-05-06 08:55 | 44.37815 | -78.01340 | 29256 ft | 352 kts | 242° |
| 2026-05-06 08:55 | 44.36582 | -78.04286 | 28772 ft | 349 kts | 242° |
| 2026-05-06 08:55 | 44.35374 | -78.07168 | 28292 ft | 347 kts | 242° |
| 2026-05-06 08:56 | 44.34141 | -78.10105 | 27366 ft | 355 kts | 242° |
| 2026-05-06 08:56 | 44.32896 | -78.13064 | 26891 ft | 351 kts | 241° |
| 2026-05-06 08:56 | 44.31656 | -78.16008 | 26363 ft | 349 kts | 241° |
| 2026-05-06 08:56 | 44.30429 | -78.18917 | 25885 ft | 346 kts | 241° |
| 2026-05-06 08:57 | 44.29208 | -78.21808 | 25422 ft | 343 kts | 240° |
| 2026-05-06 08:57 | 44.28004 | -78.24660 | 24964 ft | 340 kts | 240° |
| 2026-05-06 08:57 | 44.26810 | -78.27485 | 24518 ft | 336 kts | 240° |
| 2026-05-06 08:57 | 44.25626 | -78.30285 | 24065 ft | 333 kts | 240° |
| 2026-05-06 08:58 | 44.24450 | -78.33061 | 23623 ft | 330 kts | 240° |
| 2026-05-06 08:58 | 44.23286 | -78.35810 | 23191 ft | 327 kts | 240° |
| 2026-05-06 08:58 | 44.22143 | -78.38504 | 22759 ft | 325 kts | 240° |
| 2026-05-06 08:58 | 44.21001 | -78.41195 | 22331 ft | 322 kts | 240° |
| 2026-05-06 08:59 | 44.19864 | -78.43871 | 21904 ft | 319 kts | 240° |
| 2026-05-06 08:59 | 44.18735 | -78.46525 | 21479 ft | 317 kts | 240° |
| 2026-05-06 08:59 | 44.17614 | -78.49157 | 21066 ft | 314 kts | 240° |
| 2026-05-06 08:59 | 44.16501 | -78.51770 | 20652 ft | 312 kts | 240° |
| 2026-05-06 09:00 | 44.15397 | -78.54359 | 20244 ft | 309 kts | 239° |
| 2026-05-06 09:00 | 44.14301 | -78.56926 | 19828 ft | 307 kts | 239° |
| 2026-05-06 09:00 | 44.13212 | -78.59475 | 19428 ft | 305 kts | 239° |
| 2026-05-06 09:00 | 44.12133 | -78.61997 | 19026 ft | 304 kts | 239° |
| 2026-05-06 09:01 | 44.11050 | -78.64529 | 18628 ft | 304 kts | 239° |
| 2026-05-06 09:01 | 44.09963 | -78.67067 | 18220 ft | 306 kts | 239° |
| 2026-05-06 09:01 | 44.08858 | -78.69643 | 17814 ft | 314 kts | 239° |
| 2026-05-06 09:01 | 44.07736 | -78.72260 | 17392 ft | 315 kts | 239° |
| 2026-05-06 09:02 | 44.06634 | -78.74826 | 17060 ft | 310 kts | 239° |
| 2026-05-06 09:02 | 44.05522 | -78.77412 | 16682 ft | 306 kts | 239° |
| 2026-05-06 09:02 | 44.04471 | -78.79918 | 16278 ft | 303 kts | 243° |
| 2026-05-06 09:02 | 44.03797 | -78.82691 | 15774 ft | 306 kts | 255° |
| 2026-05-06 09:03 | 44.03369 | -78.85593 | 15341 ft | 305 kts | 256° |
| 2026-05-06 09:03 | 44.02966 | -78.88460 | 14924 ft | 303 kts | 256° |
| 2026-05-06 09:03 | 44.02559 | -78.91337 | 14524 ft | 301 kts | 256° |
| 2026-05-06 09:03 | 44.02153 | -78.94164 | 14133 ft | 298 kts | 255° |
| 2026-05-06 09:04 | 44.01744 | -78.96977 | 13740 ft | 296 kts | 255° |
| 2026-05-06 09:04 | 44.01332 | -78.99767 | 13341 ft | 293 kts | 255° |
| 2026-05-06 09:04 | 44.00919 | -79.02539 | 12943 ft | 292 kts | 255° |
| 2026-05-06 09:04 | 44.00512 | -79.05261 | 12608 ft | 289 kts | 255° |
| 2026-05-06 09:05 | 44.00107 | -79.07982 | 12488 ft | 279 kts | 255° |
| 2026-05-06 09:05 | 43.99720 | -79.10576 | 12356 ft | 270 kts | 254° |
| 2026-05-06 09:05 | 43.99342 | -79.13084 | 12230 ft | 261 kts | 253° |
| 2026-05-06 09:05 | 43.98981 | -79.15481 | 12125 ft | 252 kts | 253° |
| 2026-05-06 09:06 | 43.98324 | -79.17649 | 12007 ft | 239 kts | 232° |
| 2026-05-06 09:06 | 43.97223 | -79.19348 | 11833 ft | 236 kts | 222° |
| 2026-05-06 09:06 | 43.95820 | -79.20592 | 11651 ft | 247 kts | 211° |
| 2026-05-06 09:06 | 43.94224 | -79.21636 | 11444 ft | 258 kts | 208° |
| 2026-05-06 09:07 | 43.92559 | -79.22677 | 11219 ft | 265 kts | 208° |
| 2026-05-06 09:07 | 43.90874 | -79.23736 | 10975 ft | 267 kts | 208° |
| 2026-05-06 09:07 | 43.89178 | -79.24813 | 10738 ft | 268 kts | 208° |
| 2026-05-06 09:07 | 43.87505 | -79.25882 | 10507 ft | 269 kts | 208° |
| 2026-05-06 09:08 | 43.85800 | -79.26975 | 10267 ft | 269 kts | 209° |
| 2026-05-06 09:08 | 43.84317 | -79.28467 | 10020 ft | 261 kts | 229° |
| 2026-05-06 09:08 | 43.83262 | -79.30440 | 9815 ft | 255 kts | 239° |
| 2026-05-06 09:08 | 43.82381 | -79.32555 | 9584 ft | 252 kts | 241° |
| 2026-05-06 09:09 | 43.81534 | -79.34662 | 9365 ft | 250 kts | 241° |
| 2026-05-06 09:09 | 43.80684 | -79.36763 | 9157 ft | 250 kts | 241° |
| 2026-05-06 09:09 | 43.79826 | -79.38859 | 8937 ft | 249 kts | 241° |
| 2026-05-06 09:09 | 43.78974 | -79.40930 | 8721 ft | 246 kts | 241° |
| 2026-05-06 09:10 | 43.78124 | -79.42972 | 8512 ft | 243 kts | 241° |
| 2026-05-06 09:10 | 43.77293 | -79.44965 | 8303 ft | 241 kts | 241° |
| 2026-05-06 09:10 | 43.76461 | -79.46957 | 8092 ft | 237 kts | 240° |
| 2026-05-06 09:10 | 43.75641 | -79.48916 | 7926 ft | 233 kts | 240° |
| 2026-05-06 09:11 | 43.74833 | -79.50845 | 7767 ft | 228 kts | 240° |
| 2026-05-06 09:11 | 43.74326 | -79.52868 | 7601 ft | 224 kts | 268° |
| 2026-05-06 09:11 | 43.74631 | -79.54949 | 7488 ft | 223 kts | 291° |
| 2026-05-06 09:11 | 43.75507 | -79.56735 | 7358 ft | 229 kts | 312° |
| 2026-05-06 09:12 | 43.76672 | -79.58244 | 7228 ft | 231 kts | 314° |
| 2026-05-06 09:12 | 43.77851 | -79.59765 | 7076 ft | 232 kts | 314° |
| 2026-05-06 09:12 | 43.79038 | -79.61301 | 6935 ft | 234 kts | 314° |
| 2026-05-06 09:12 | 43.80215 | -79.62829 | 6773 ft | 234 kts | 314° |
| 2026-05-06 09:13 | 43.81403 | -79.64374 | 6621 ft | 231 kts | 314° |
| 2026-05-06 09:13 | 43.82561 | -79.65890 | 6463 ft | 228 kts | 314° |
| 2026-05-06 09:13 | 43.83710 | -79.67389 | 6336 ft | 227 kts | 314° |
| 2026-05-06 09:13 | 43.84859 | -79.68892 | 6199 ft | 227 kts | 314° |
| 2026-05-06 09:14 | 43.86001 | -79.70391 | 6103 ft | 224 kts | 314° |
| 2026-05-06 09:14 | 43.87123 | -79.71866 | 6075 ft | 223 kts | 314° |
| 2026-05-06 09:14 | 43.88262 | -79.73361 | 5961 ft | 227 kts | 314° |
| 2026-05-06 09:14 | 43.89421 | -79.74883 | 5852 ft | 231 kts | 314° |
| 2026-05-06 09:15 | 43.90584 | -79.76416 | 5726 ft | 230 kts | 314° |
| 2026-05-06 09:15 | 43.91737 | -79.77931 | 5583 ft | 227 kts | 315° |
| 2026-05-06 09:15 | 43.92884 | -79.79439 | 5451 ft | 227 kts | 315° |
| 2026-05-06 09:15 | 43.94030 | -79.80950 | 5335 ft | 229 kts | 315° |
| 2026-05-06 09:16 | 43.95179 | -79.82460 | 5205 ft | 231 kts | 315° |
| 2026-05-06 09:16 | 43.96347 | -79.83998 | 5076 ft | 233 kts | 315° |
| 2026-05-06 09:16 | 43.97526 | -79.85562 | 4936 ft | 234 kts | 313° |
| 2026-05-06 09:16 | 43.98361 | -79.87455 | 4780 ft | 230 kts | 280° |
| 2026-05-06 09:17 | 43.98247 | -79.89596 | 4671 ft | 221 kts | 246° |
| 2026-05-06 09:17 | 43.97359 | -79.91305 | 4574 ft | 219 kts | 216° |
| 2026-05-06 09:17 | 43.95993 | -79.92179 | 4453 ft | 219 kts | 187° |
| 2026-05-06 09:17 | 43.94516 | -79.92047 | 4334 ft | 219 kts | 161° |
| 2026-05-06 09:18 | 43.93128 | -79.91167 | 4236 ft | 220 kts | 153° |
| 2026-05-06 09:18 | 43.91760 | -79.90220 | 4086 ft | 219 kts | 153° |
| 2026-05-06 09:18 | 43.90408 | -79.89280 | 3950 ft | 215 kts | 152° |
| 2026-05-06 09:18 | 43.89081 | -79.88355 | 3826 ft | 213 kts | 152° |
| 2026-05-06 09:19 | 43.87756 | -79.87442 | 3719 ft | 213 kts | 152° |
| 2026-05-06 09:19 | 43.86425 | -79.86525 | 3587 ft | 213 kts | 152° |
| 2026-05-06 09:19 | 43.85210 | -79.85390 | 3463 ft | 210 kts | 134° |
| 2026-05-06 09:19 | 43.84182 | -79.83953 | 3358 ft | 209 kts | 134° |
| 2026-05-06 09:20 | 43.83143 | -79.82551 | 3239 ft | 208 kts | 135° |
| 2026-05-06 09:20 | 43.82097 | -79.81160 | 3119 ft | 208 kts | 135° |
| 2026-05-06 09:20 | 43.81050 | -79.79774 | 3033 ft | 207 kts | 135° |
| 2026-05-06 09:20 | 43.80014 | -79.78403 | 3002 ft | 205 kts | 135° |
| 2026-05-06 09:21 | 43.78986 | -79.77047 | 3003 ft | 204 kts | 135° |
| 2026-05-06 09:21 | 43.77975 | -79.75687 | 2916 ft | 209 kts | 135° |
| 2026-05-06 09:21 | 43.76906 | -79.74282 | 2657 ft | 212 kts | 135° |
| 2026-05-06 09:21 | 43.75854 | -79.72913 | 2368 ft | 202 kts | 136° |
| 2026-05-06 09:22 | 43.74860 | -79.71616 | 2103 ft | 190 kts | 136° |
| 2026-05-06 09:22 | 43.73924 | -79.70395 | 1854 ft | 179 kts | 136° |
| 2026-05-06 09:22 | 43.73048 | -79.69251 | 1626 ft | 167 kts | 136° |
| 2026-05-06 09:22 | 43.72243 | -79.68200 | 1436 ft | 151 kts | 136° |
| 2026-05-06 09:23 | 43.71479 | -79.67203 | 1226 ft | 153 kts | 136° |
| 2026-05-06 09:23 | 43.70716 | -79.66206 | 1020 ft | 149 kts | 136° |
| 2026-05-06 09:23 | 43.69967 | -79.65229 | 824 ft | 147 kts | 136° |
| 2026-05-06 09:23 | 43.69219 | -79.64250 | 636 ft | 148 kts | 136° |
| 2026-05-06 09:24 | 43.68469 | -79.63281 | 573 ft | 148 kts | 137° |
| 2026-05-06 09:24 | 43.67745 | -79.62329 | 565 ft | 130 kts | 136° |
| 2026-05-06 09:24 | 43.67252 | -79.61688 | 575 ft | 39 kts | 136° |
| 2026-05-06 09:24 | 43.67190 | -79.61529 | 569 ft | 16 kts | 54° |
| 2026-05-06 09:25 | 43.67200 | -79.61513 | 568 ft | 0 kts | 47° |
| 2026-05-06 09:25 | 43.67208 | -79.61502 | 571 ft | 4 kts | 47° |
| 2026-05-06 09:26 | 43.67240 | -79.61453 | 570 ft | 10 kts | 47° |
| 2026-05-06 09:26 | 43.67304 | -79.61371 | 568 ft | 16 kts | 32° |
| 2026-05-06 09:26 | 43.67419 | -79.61303 | 565 ft | 20 kts | 18° |
| 2026-05-06 09:26 | 43.67501 | -79.61346 | 564 ft | 22 kts | 305° |
| 2026-05-06 09:27 | 43.67605 | -79.61513 | 562 ft | 24 kts | 317° |
| 2026-05-06 09:27 | 43.67723 | -79.61664 | 564 ft | 23 kts | 316° |
| 2026-05-06 09:27 | 43.67835 | -79.61812 | 566 ft | 22 kts | 316° |
| 2026-05-06 09:27 | 43.67959 | -79.61928 | 566 ft | 21 kts | 329° |
| 2026-05-06 09:28 | 43.68072 | -79.62059 | 564 ft | 21 kts | 316° |
| 2026-05-06 09:28 | 43.68175 | -79.62194 | 560 ft | 20 kts | 316° |
| 2026-05-06 09:28 | 43.68275 | -79.62325 | 566 ft | 20 kts | 317° |
| 2026-05-06 09:28 | 43.68373 | -79.62450 | 568 ft | 19 kts | 317° |
| 2026-05-06 09:29 | 43.68478 | -79.62546 | 565 ft | 18 kts | 351° |
| 2026-05-06 09:29 | 43.68588 | -79.62579 | 569 ft | 13 kts | 341° |
| 2026-05-06 09:29 | 43.68648 | -79.62612 | 566 ft | 1 kts | 337° |
| 2026-05-06 09:29 | 43.68656 | -79.62617 | 560 ft | 1 kts | 337° |
| 2026-05-06 09:30 | 43.68657 | -79.62617 | 565 ft | 0 kts | 337° |